Time;durP1;ratioP1;P1;durP2;ratioP2;P2;SDS_P1;SDS_P2;PMS_P1;PMS_P2;Temp;Humidity;BMP_temperature;BMP_pressure;BME280_temperature;BME280_humidity;BME280_pressure;Samples;Min_cycle;Max_cycle;Signal;HPM_P1;HPM_P2
2022/07/26 00:00:54;;;;;;;5.00;3.30;;;;;;;17.92;54.88;98248.57;1374659;84;80730;-72
2022/07/26 00:02:55;;;;;;;;;;;;;;;17.86;55.15;98246.77;1379284;83;21033;-71
2022/07/26 00:04:56;;;;;;;4.37;3.20;;;;;;;17.83;55.34;98234.20;1371904;84;68017;-72
2022/07/26 00:06:56;;;;;;;;;;;;;;;17.80;55.24;98236.64;1380685;83;21026;-72
2022/07/26 00:08:58;;;;;;;3.27;3.08;;;;;;;17.78;55.54;98238.63;1374622;83;20147;-72
2022/07/26 00:10:59;;;;;;;4.22;3.45;;;;;;;17.72;55.43;98233.83;1374361;83;80562;-72
2022/07/26 00:12:59;;;;;;;;;;;;;;;17.66;55.51;98225.06;1378817;83;21001;-71
2022/07/26 00:15:00;;;;;;;4.17;3.22;;;;;;;17.59;55.80;98221.27;1377543;83;67837;-71
2022/07/26 00:17:03;;;;;;;3.40;3.10;;;;;;;17.52;55.72;98221.80;1375074;83;20978;-72
2022/07/26 00:19:10;;;;;;;4.55;3.47;;;;;;;17.50;55.78;98218.44;1356212;85;21185;-71
2022/07/26 00:21:08;;;;;;;3.95;3.55;;;;;;;17.48;55.87;98211.56;1372572;83;80837;-72
2022/07/26 00:23:09;;;;;;;13.15;3.33;;;;;;;17.42;55.98;98210.30;1375990;83;21556;-72
2022/07/26 00:25:10;;;;;;;8.13;4.00;;;;;;;17.38;55.98;98213.34;1373535;84;81936;-73
2022/07/26 00:27:11;;;;;;;3.75;3.45;;;;;;;17.35;56.11;98210.48;1375156;83;22231;-72
2022/07/26 00:29:13;;;;;;;6.08;3.60;;;;;;;17.31;56.26;98213.07;1376757;83;21025;-72
2022/07/26 00:31:14;;;;;;;6.75;3.05;;;;;;;17.27;56.31;98210.33;1373168;83;81500;-72
2022/07/26 00:33:15;;;;;;;5.40;3.50;;;;;;;17.21;56.46;98214.38;1375241;81;21049;-72
2022/07/26 00:35:16;;;;;;;5.42;3.20;;;;;;;17.16;56.49;98208.09;1373343;83;82420;-72
2022/07/26 00:37:17;;;;;;;;;;;;;;;17.14;56.70;98212.73;1376455;84;21043;-73
2022/07/26 00:39:18;;;;;;;7.42;3.67;;;;;;;17.13;57.11;98211.54;1376584;83;20254;-71
2022/07/26 00:41:19;;;;;;;;;;;;;;;17.09;57.04;98208.29;1377167;84;81605;-72
2022/07/26 00:43:20;;;;;;;9.15;3.42;;;;;;;17.07;57.35;98206.27;1374765;84;20622;-71
2022/07/26 00:45:20;;;;;;;;;;;;;;;17.01;57.27;98208.11;1377200;83;82064;-71
2022/07/26 00:47:21;;;;;;;11.33;3.47;;;;;;;17.00;57.61;98204.63;1339973;85;20504;-71
2022/07/26 00:49:22;;;;;;;9.68;3.92;;;;;;;17.00;57.53;98206.42;1374644;83;21350;-72
2022/07/26 00:51:23;;;;;;;;;;;;;;;16.97;57.54;98200.04;1375666;83;80912;-72
2022/07/26 00:53:24;;;;;;;11.48;4.17;;;;;;;16.93;57.81;98205.28;1376168;84;20139;-71
2022/07/26 00:55:26;;;;;;;20.00;3.45;;;;;;;16.88;57.63;98207.45;1372712;83;80936;-72
2022/07/26 00:57:27;;;;;;;6.65;3.60;;;;;;;16.87;57.67;98212.45;1375030;83;21049;-73
2022/07/26 00:59:29;;;;;;;3.83;3.52;;;;;;;16.84;57.67;98210.39;1373505;83;21679;-72
2022/07/26 01:01:29;;;;;;;4.90;3.50;;;;;;;16.81;57.72;98211.99;1375090;84;81755;-72
2022/07/26 01:03:30;;;;;;;;;;;;;;;16.78;57.81;98208.27;1377611;84;21624;-72
2022/07/26 01:05:31;;;;;;;3.90;3.58;;;;;;;16.75;58.12;98201.86;1337447;85;68175;-72
2022/07/26 01:07:33;;;;;;;8.25;3.95;;;;;;;16.64;58.03;98198.81;1373794;85;21699;-72
2022/07/26 01:09:34;;;;;;;8.60;3.60;;;;;;;16.55;58.10;98197.44;1375569;83;21041;-72
2022/07/26 01:11:35;;;;;;;4.25;3.87;;;;;;;16.46;58.14;98201.23;1372774;84;81337;-72
2022/07/26 01:13:36;;;;;;;;;;;;;;;16.34;58.25;98181.00;1375048;84;21017;-72
2022/07/26 01:15:37;;;;;;;4.15;3.80;;;;;;;16.42;58.54;98197.15;1374514;84;67175;-72
2022/07/26 01:17:38;;;;;;;;;;;;;;;16.43;58.46;98195.32;1378097;83;21317;-72
2022/07/26 01:19:40;;;;;;;13.28;3.90;;;;;;;16.43;58.72;98186.84;1375757;84;20455;-71
2022/07/26 01:21:41;;;;;;;6.47;4.37;;;;;;;16.43;58.59;98182.85;1375186;83;81732;-72
2022/07/26 01:23:42;;;;;;;;;;;;;;;16.39;58.69;98171.28;1378554;81;21151;-71
2022/07/26 01:25:43;;;;;;;4.12;3.72;;;;;;;16.40;58.91;98180.46;1337646;86;67899;-71
2022/07/26 01:27:44;;;;;;;5.97;4.15;;;;;;;16.38;58.81;98177.10;1376104;83;21084;-72
2022/07/26 01:29:45;;;;;;;;;;;;;;;16.33;58.81;98174.81;1341274;85;21043;-72
2022/07/26 01:31:47;;;;;;;5.90;4.08;;;;;;;16.29;59.08;98170.73;1337909;86;66873;-72
2022/07/26 01:33:49;;;;;;;4.62;3.62;;;;;;;16.25;58.99;98172.46;1374715;83;21627;-72
2022/07/26 01:35:50;;;;;;;3.80;3.52;;;;;;;16.24;59.08;98175.62;1373716;83;80750;-71
2022/07/26 01:37:50;;;;;;;;;;;;;;;16.24;59.13;98173.42;1377790;84;21635;-72
2022/07/26 01:39:52;;;;;;;5.22;4.00;;;;;;;16.26;59.40;98176.31;1378279;82;20162;-73
2022/07/26 01:41:55;;;;;;;;;;;;;;;16.27;59.26;98171.83;1375436;83;80662;-72
2022/07/26 01:43:56;;;;;;;4.03;3.62;;;;;;;16.28;59.56;98171.73;1339714;85;20562;-72
2022/07/26 01:45:57;;;;;;;;;;;;;;;16.27;59.43;98167.38;1376313;83;81642;-71
2022/07/26 01:47:58;;;;;;;6.58;4.08;;;;;;;16.26;59.75;98164.84;1340875;84;20572;-72
2022/07/26 01:49:59;;;;;;;4.25;3.83;;;;;;;16.24;59.63;98161.46;1343151;86;80845;-72
2022/07/26 01:52:00;;;;;;;;;;;;;;;16.20;59.61;98151.59;1342422;85;21383;-72
2022/07/26 01:54:01;;;;;;;6.17;4.22;;;;;;;16.15;59.85;98154.62;1333767;86;20615;-71
2022/07/26 01:56:02;;;;;;;6.08;3.83;;;;;;;16.08;59.77;98153.95;1340170;86;81553;-71
2022/07/26 01:58:05;;;;;;;4.00;3.60;;;;;;;16.04;59.82;98152.03;1340282;85;21096;-72
2022/07/26 02:00:07;;;;;;;4.33;3.90;;;;;;;16.03;59.84;98151.66;1372584;81;80935;-71
2022/07/26 02:02:08;;;;;;;5.10;3.87;;;;;;;16.03;59.89;98149.00;1372573;84;22386;-72
2022/07/26 02:04:57;;;;;;;;;;;;;;;16.01;59.93;98145.65;1378098;83;21049;-71
2022/07/26 02:06:11;;;;;;;4.53;3.87;;;;;;;16.02;60.17;98145.15;1342164;86;67246;-72
2022/07/26 02:08:12;;;;;;;;;;;;;;;16.00;60.05;98138.17;1348547;85;21755;-71
2022/07/26 02:10:14;;;;;;;4.20;3.80;;;;;;;16.00;60.42;98137.31;1346903;84;67389;-71
2022/07/26 02:12:15;;;;;;;4.70;4.25;;;;;;;15.97;60.29;98137.58;1380600;82;21076;-71
2022/07/26 02:14:16;;;;;;;;;;;;;;;15.95;60.41;98133.72;1383824;82;21064;-71
2022/07/26 02:16:17;;;;;;;6.83;4.17;;;;;;;15.92;60.64;98129.14;1376986;84;67263;-71
2022/07/26 02:18:17;;;;;;;;;;;;;;;15.90;60.61;98123.12;1382528;83;21083;-72
2022/07/26 02:20:18;;;;;;;4.25;3.70;;;;;;;15.87;60.84;98121.56;1344433;83;67275;-71
2022/07/26 02:22:19;;;;;;;;;;;;;;;15.86;60.74;98123.86;1349840;85;21060;-71
2022/07/26 02:24:20;;;;;;;7.67;4.28;;;;;;;15.87;60.96;98128.67;1330841;86;20134;-72
2022/07/26 02:26:21;;;;;;;11.30;4.25;;;;;;;15.83;60.92;98131.59;1313301;85;81327;-72
2022/07/26 02:28:23;;;;;;;5.20;4.67;;;;;;;15.83;60.95;98131.59;1336560;86;21553;-72
2022/07/26 02:30:24;;;;;;;7.75;3.92;;;;;;;15.81;61.11;98136.20;1335831;83;80639;-71
2022/07/26 02:32:25;;;;;;;5.70;4.20;;;;;;;15.81;61.11;98138.86;1337526;86;21064;-71
2022/07/26 02:34:26;;;;;;;;;;;;;;;15.80;61.19;98139.00;1340361;85;21044;-71
2022/07/26 02:36:27;;;;;;;8.68;4.28;;;;;;;15.79;61.45;98132.81;1337499;86;67175;-72
2022/07/26 02:38:28;;;;;;;;;;;;;;;15.78;61.29;98128.47;1339882;85;22183;-72
2022/07/26 02:40:29;;;;;;;4.53;3.98;;;;;;;15.75;61.49;98126.04;1336873;87;67208;-71
2022/07/26 02:42:30;;;;;;;5.08;4.08;;;;;;;15.67;61.45;98121.85;1337413;85;21095;-71
2022/07/26 02:44:33;;;;;;;;;;;;;;;15.67;61.45;98121.85;1341080;85;21110;-72
2022/07/26 02:46:34;;;;;;;4.45;4.05;;;;;;;15.66;61.66;98126.83;1331101;88;67416;-72
2022/07/26 02:48:35;;;;;;;7.40;4.15;;;;;;;15.63;61.60;98121.75;1348594;84;21573;-72
2022/07/26 02:50:36;;;;;;;;;;;;;;;15.62;61.64;98122.73;1379841;84;80733;-72
2022/07/26 02:52:37;;;;;;;9.38;4.30;;;;;;;15.63;61.91;98120.41;1378681;84;20163;-72
2022/07/26 02:54:38;;;;;;;8.63;4.17;;;;;;;15.61;61.91;98126.36;1378339;83;21367;-72
2022/07/26 02:56:39;;;;;;;;;;;;;;;15.60;61.99;98118.88;1377745;84;81562;-71
2022/07/26 02:58:40;;;;;;;4.75;4.22;;;;;;;15.62;62.16;98116.92;1377020;83;20214;-71
2022/07/26 03:00:41;;;;;;;;;;;;;;;15.46;62.07;98089.45;1379153;82;81769;-72
2022/07/26 03:02:42;;;;;;;15.70;4.85;;;;;;;15.63;62.31;98115.11;1343555;84;20201;-71
2022/07/26 03:04:43;;;;;;;;;;;;;;;15.63;62.16;98108.46;1351755;85;21069;-70
2022/07/26 03:06:44;;;;;;;13.00;4.65;;;;;;;15.62;62.36;98105.47;1331269;87;68086;-71
2022/07/26 03:08:45;;;;;;;;;;;;;;;15.62;62.29;98098.83;1333832;87;21126;-72
2022/07/26 03:10:46;;;;;;;25.97;5.22;;;;;;;15.63;62.45;98099.16;1330900;86;67220;-71
2022/07/26 03:12:47;;;;;;;;;;;;;;;15.64;62.34;98099.03;1336387;86;21478;-71
2022/07/26 03:14:48;;;;;;;21.07;4.70;;;;;;;15.68;62.53;98100.96;1331204;85;20148;-72
2022/07/26 03:16:48;;;;;;;;;;;;;;;15.69;62.40;98093.36;1336683;87;80803;-71
2022/07/26 03:18:49;;;;;;;40.30;5.60;;;;;;;15.73;62.56;98089.47;1333751;87;20165;-71
2022/07/26 03:20:50;;;;;;;;;;;;;;;15.76;62.45;98088.37;1317386;87;80892;-71
2022/07/26 03:22:51;;;;;;;18.15;4.83;;;;;;;15.80;62.65;98090.67;1337564;86;20182;-72
2022/07/26 03:24:52;;;;;;;;;;;;;;;15.81;62.55;98092.36;1339058;85;21638;-71
2022/07/26 03:26:53;;;;;;;15.80;4.80;;;;;;;15.79;62.65;98094.76;1334899;86;66823;-72
2022/07/26 03:28:54;;;;;;;;;;;;;;;15.78;62.57;98087.28;1336660;87;21627;-71
2022/07/26 03:30:56;;;;;;;20.25;5.17;;;;;;;15.77;62.75;98080.28;1336039;85;67905;-71
2022/07/26 03:32:59;;;;;;;14.55;5.10;;;;;;;15.78;62.70;98083.77;1337854;85;21061;-71
2022/07/26 03:35:01;;;;;;;13.83;4.67;;;;;;;15.85;62.75;98080.14;1334869;87;81165;-71
2022/07/26 03:37:03;;;;;;;14.00;4.53;;;;;;;15.85;62.75;98080.14;1338478;85;21604;-71
2022/07/26 03:39:04;;;;;;;10.28;4.40;;;;;;;15.93;62.71;98077.68;1335862;85;21395;-72
2022/07/26 03:41:05;;;;;;;;;;;;;;;15.93;62.71;98077.68;1338102;85;82055;-71
2022/07/26 03:43:06;;;;;;;6.97;5.28;;;;;;;15.97;63.10;98076.45;1340479;86;20142;-71
2022/07/26 03:45:07;;;;;;;;;;;;;;;16.00;63.02;98081.03;1337396;85;81064;-72
2022/07/26 03:47:08;;;;;;;17.70;4.42;;;;;;;16.03;63.20;98070.59;1338151;86;20135;-72
2022/07/26 03:49:08;;;;;;;;;;;;;;;16.08;63.00;98071.05;1341805;85;21667;-72
2022/07/26 03:51:09;;;;;;;23.40;4.33;;;;;;;16.12;63.07;98071.14;1336399;85;67930;-72
2022/07/26 03:53:10;;;;;;;;;;;;;;;16.17;63.02;98074.72;1340042;87;21607;-71
2022/07/26 03:57:31;;;;;;;7.22;4.37;;;;;;;16.25;63.23;98071.42;1335085;86;21619;-71
2022/07/26 03:59:31;;;;;;;;;;;;;;;16.28;63.26;98065.83;1338759;86;21005;-71
2022/07/26 04:01:33;;;;;;;24.02;4.70;;;;;;;16.33;63.28;98062.30;1340746;85;68228;-71
2022/07/26 04:03:35;;;;;;;11.50;5.12;;;;;;;16.39;63.06;98056.92;1347896;84;21064;-72
2022/07/26 04:05:36;;;;;;;13.80;4.80;;;;;;;16.39;63.06;98056.92;1330791;86;82228;-72
2022/07/26 04:07:44;;;;;;;13.15;5.58;;;;;;;16.42;63.09;98056.19;1327147;87;21126;-71
2022/07/26 04:09:45;;;;;;;9.08;4.65;;;;;;;16.44;63.22;98050.23;1317404;88;21103;-72
2022/07/26 04:11:47;;;;;;;;;;;;;;;16.43;63.22;98051.70;1305022;89;80662;-71
2022/07/26 04:13:48;;;;;;;5.15;4.45;;;;;;;16.46;63.46;98056.27;1323801;87;20185;-71
2022/07/26 04:15:49;;;;;;;;;;;;;;;16.47;63.28;98056.60;1371989;83;81512;-71
2022/07/26 04:17:50;;;;;;;8.93;5.50;;;;;;;16.51;63.49;98054.53;1334155;85;20145;-71
2022/07/26 04:19:51;;;;;;;;;;;;;;;16.51;63.35;98051.37;1372211;84;22352;-71
2022/07/26 04:21:52;;;;;;;6.50;4.83;;;;;;;16.55;63.60;98061.27;1370833;84;67494;-72
2022/07/26 04:23:52;;;;;;;;;;;;;;;16.58;63.51;98058.83;1373066;83;21933;-72
2022/07/26 04:25:53;;;;;;;37.83;6.20;;;;;;;16.62;63.65;98061.58;1372104;85;67289;-71
2022/07/26 04:27:54;;;;;;;;;;;;;;;16.65;63.42;98058.63;1374200;83;21026;-71
2022/07/26 04:29:55;;;;;;;42.40;5.65;;;;;;;16.68;63.61;98054.36;1373212;83;67266;-71
2022/07/26 04:31:56;;;;;;;53.10;6.85;;;;;;;16.70;63.43;98057.75;1370562;85;21037;-72
2022/07/26 04:33:57;;;;;;;;;;;;;;;16.74;63.42;98063.16;1373469;84;21395;-71
2022/07/26 04:35:59;;;;;;;19.12;5.45;;;;;;;16.79;63.63;98066.73;1370164;82;67237;-71
2022/07/26 04:38:03;;;;;;;25.40;5.00;;;;;;;16.83;63.53;98058.83;1373235;84;21081;-71
2022/07/26 04:40:05;;;;;;;20.75;5.42;;;;;;;16.88;63.62;98059.73;1368331;84;81145;-72
2022/07/26 04:42:06;;;;;;;18.45;5.78;;;;;;;16.94;63.65;98056.58;1373427;84;21065;-71
2022/07/26 04:44:07;;;;;;;8.55;5.37;;;;;;;17.01;63.75;98057.70;1370703;84;21049;-71
2022/07/26 04:46:08;;;;;;;;;;;;;;;17.08;63.75;98058.83;1372449;84;80968;-72
2022/07/26 04:48:09;;;;;;;28.52;5.80;;;;;;;17.15;63.92;98057.29;1370004;83;20162;-72
2022/07/26 04:50:11;;;;;;;;;;;;;;;17.24;63.86;98065.42;1373021;84;82272;-71
2022/07/26 04:52:12;;;;;;;41.55;6.78;;;;;;;17.32;63.96;98061.11;1371768;83;20122;-71
2022/07/26 04:54:14;;;;;;;;;;;;;;;17.41;63.86;98062.08;1373960;84;21057;-71
2022/07/26 04:56:15;;;;;;;91.47;7.65;;;;;;;17.51;63.94;98060.28;1330013;87;68631;-71
2022/07/26 04:58:16;;;;;;;83.27;7.15;;;;;;;17.60;63.80;98060.38;1369816;84;21010;-70
2022/07/26 05:00:22;;;;;;;180.75;12.85;;;;;;;17.70;63.90;98061.23;1368124;83;81071;-71
2022/07/26 05:02:22;;;;;;;145.68;9.55;;;;;;;17.79;63.68;98057.73;1368310;85;22354;-71
2022/07/26 05:04:23;;;;;;;37.08;7.53;;;;;;;17.92;63.83;98054.78;1374114;83;21037;-72
2022/07/26 05:06:24;;;;;;;56.92;6.47;;;;;;;18.03;63.84;98055.11;1370526;84;81020;-71
2022/07/26 05:08:25;;;;;;;90.90;8.15;;;;;;;18.14;63.66;98058.11;1375916;84;21076;-71
2022/07/26 05:10:34;;;;;;;80.00;7.72;;;;;;;18.23;63.45;98053.22;1378071;84;81569;-71
2022/07/26 05:12:35;;;;;;;93.67;8.30;;;;;;;18.32;63.38;98050.19;1377166;84;21656;-70
2022/07/26 05:14:36;;;;;;;133.03;10.18;;;;;;;18.41;63.31;98053.29;1377976;84;21674;-72
2022/07/26 05:16:37;;;;;;;156.47;10.43;;;;;;;18.50;63.21;98044.92;1376595;83;81264;-71
2022/07/26 05:18:38;;;;;;;120.57;9.25;;;;;;;18.57;63.14;98047.81;1375445;84;21060;-72
2022/07/26 05:20:39;;;;;;;105.70;8.83;;;;;;;18.68;63.18;98059.14;1374956;84;81121;-71
2022/07/26 05:22:41;;;;;;;125.97;9.65;;;;;;;18.79;63.01;98060.78;1374760;84;21073;-72
2022/07/26 05:24:42;;;;;;;109.95;9.43;;;;;;;18.88;62.88;98062.59;1374487;83;21711;-71
2022/07/26 05:26:42;;;;;;;76.35;8.20;;;;;;;18.98;62.82;98059.87;1377337;84;82368;-71
2022/07/26 05:28:43;;;;;;;76.33;7.47;;;;;;;19.07;62.79;98059.95;1373646;83;21049;-71
2022/07/26 05:30:44;;;;;;;;;;;;;;;19.19;62.90;98058.72;1375288;84;81084;-71
2022/07/26 05:32:45;;;;;;;190.47;12.35;;;;;;;19.31;62.95;98066.86;1376015;84;20168;-71
2022/07/26 05:34:46;;;;;;;184.22;11.08;;;;;;;19.39;62.88;98058.09;1376645;83;21077;-71
2022/07/26 05:36:47;;;;;;;202.28;11.48;;;;;;;19.49;62.76;98065.52;1375651;83;82069;-71
2022/07/26 05:38:48;;;;;;;191.77;12.73;;;;;;;19.59;62.80;98064.61;1381420;83;21057;-71
2022/07/26 05:40:49;;;;;;;166.80;11.65;;;;;;;19.68;62.61;98059.17;1372950;83;81314;-71
2022/07/26 05:42:50;;;;;;;143.97;9.53;;;;;;;19.79;62.42;98051.92;1376950;84;21052;-71
2022/07/26 05:44:51;;;;;;;126.12;9.63;;;;;;;19.90;62.25;98057.05;1372940;83;21026;-72
2022/07/26 05:46:52;;;;;;;92.10;8.33;;;;;;;20.01;62.13;98055.95;1376474;83;81629;-71
2022/07/26 05:48:53;;;;;;;92.42;6.85;;;;;;;20.12;62.08;98052.16;1377193;83;21033;-72
2022/07/26 05:50:54;;;;;;;106.70;7.58;;;;;;;20.25;61.94;98055.25;1373825;83;80897;-72
2022/07/26 05:52:55;;;;;;;172.50;10.38;;;;;;;20.37;62.04;98056.66;1377610;84;21010;-71
2022/07/26 05:54:56;;;;;;;108.17;8.15;;;;;;;20.54;61.69;98060.25;1377398;83;81424;-71
2022/07/26 05:56:57;;;;;;;76.33;8.65;;;;;;;20.67;61.52;98050.94;1375365;83;21190;-72
2022/07/26 05:58:58;;;;;;;110.42;9.45;;;;;;;20.78;61.71;98052.52;1379137;84;21033;-72
2022/07/26 06:00:59;;;;;;;87.88;8.63;;;;;;;20.89;61.73;98050.39;1372108;84;82074;-71
2022/07/26 06:03:20;;;;;;;79.92;9.10;;;;;;;21.05;61.40;98058.14;1375258;84;21227;-71
2022/07/26 06:05:07;;;;;;;98.07;7.87;;;;;;;21.23;61.08;98067.39;1373013;83;81923;-72
2022/07/26 06:07:08;;;;;;;77.85;7.25;;;;;;;21.43;60.95;98079.97;1375660;83;21047;-72
2022/07/26 06:09:09;;;;;;;62.35;6.62;;;;;;;21.60;61.00;98087.07;1376576;83;21276;-71
2022/07/26 06:11:10;;;;;;;54.85;6.33;;;;;;;21.74;61.05;98092.27;1373361;84;80961;-71
2022/07/26 06:13:12;;;;;;;54.85;6.30;;;;;;;21.82;60.87;98095.47;1377558;84;21065;-72
2022/07/26 06:15:13;;;;;;;116.77;8.28;;;;;;;21.92;60.79;98096.64;1376242;84;82324;-72
2022/07/26 06:17:14;;;;;;;80.60;7.40;;;;;;;21.98;60.89;98103.17;1376105;84;21041;-72
2022/07/26 06:19:15;;;;;;;30.23;5.90;;;;;;;22.02;61.07;98105.34;1377529;83;21073;-72
2022/07/26 06:21:16;;;;;;;45.00;6.12;;;;;;;22.04;61.14;98104.69;1374379;84;80855;-72
2022/07/26 06:23:17;;;;;;;47.62;5.58;;;;;;;22.09;61.23;98102.83;1376366;83;21005;-71
2022/07/26 06:25:18;;;;;;;32.28;5.70;;;;;;;22.12;61.19;98106.51;1374766;83;80963;-73
2022/07/26 06:27:19;;;;;;;28.67;5.17;;;;;;;22.16;61.21;98105.16;1377059;83;21055;-73
2022/07/26 06:29:20;;;;;;;16.93;4.35;;;;;;;22.21;61.18;98112.21;1376699;84;21077;-72
2022/07/26 06:31:22;;;;;;;15.35;4.97;;;;;;;22.26;61.06;98115.23;1372590;84;80922;-72
2022/07/26 06:33:23;;;;;;;27.87;5.15;;;;;;;22.32;61.14;98114.20;1377785;83;21439;-71
2022/07/26 06:35:24;;;;;;;15.72;5.28;;;;;;;22.36;60.96;98112.88;1373983;83;80902;-72
2022/07/26 06:37:25;;;;;;;23.30;5.10;;;;;;;22.42;60.73;98106.33;1378411;84;21088;-73
2022/07/26 06:39:26;;;;;;;13.38;4.95;;;;;;;22.47;60.67;98105.80;1378787;82;21068;-71
2022/07/26 06:41:27;;;;;;;18.90;4.95;;;;;;;22.49;60.41;98105.66;1373681;84;80866;-72
2022/07/26 06:43:28;;;;;;;30.50;5.50;;;;;;;22.49;60.28;98111.85;1379241;83;21042;-72
2022/07/26 06:45:30;;;;;;;11.33;4.90;;;;;;;22.50;60.14;98122.08;1376385;83;80931;-72
2022/07/26 06:47:31;;;;;;;13.45;5.42;;;;;;;22.49;60.09;98122.59;1376154;84;20994;-72
2022/07/26 06:49:32;;;;;;;18.07;5.22;;;;;;;22.48;60.07;98122.25;1377996;83;21548;-72
2022/07/26 06:51:34;;;;;;;30.52;5.45;;;;;;;22.49;60.17;98133.34;1373163;84;80999;-72
2022/07/26 06:53:36;;;;;;;12.00;5.33;;;;;;;22.52;60.20;98120.08;1377930;83;21025;-72
2022/07/26 06:55:36;;;;;;;25.10;5.65;;;;;;;22.57;60.13;98114.52;1374879;83;80850;-73
2022/07/26 06:57:38;;;;;;;13.62;4.70;;;;;;;22.65;60.02;98120.88;1381992;83;21049;-72
2022/07/26 06:59:39;;;;;;;7.17;4.65;;;;;;;22.66;59.95;98113.16;1378954;84;21558;-74
2022/07/26 07:01:40;;;;;;;30.82;5.78;;;;;;;22.74;59.88;98109.09;1374762;83;81535;-72
2022/07/26 07:03:41;;;;;;;16.42;6.00;;;;;;;22.81;59.87;98123.51;1378881;83;21579;-74
2022/07/26 07:05:42;;;;;;;16.48;6.15;;;;;;;22.93;59.77;98122.64;1375475;84;81676;-72
2022/07/26 07:07:43;;;;;;;8.13;6.62;;;;;;;23.07;59.53;98120.55;1377681;83;21583;-72
2022/07/26 07:09:45;;;;;;;20.85;6.40;;;;;;;23.21;59.23;98121.69;1375297;83;21070;-74
2022/07/26 07:11:48;;;;;;;23.98;6.15;;;;;;;23.32;59.02;98115.56;1374717;82;81839;-73
2022/07/26 07:13:49;;;;;;;14.73;5.95;;;;;;;23.41;58.99;98114.52;1377825;83;21032;-73
2022/07/26 07:15:50;;;;;;;13.15;6.05;;;;;;;23.50;58.92;98120.17;1375788;83;80950;-73
2022/07/26 07:17:52;;;;;;;12.05;6.30;;;;;;;23.62;58.85;98115.20;1372198;83;21096;-72
2022/07/26 07:19:53;;;;;;;13.70;6.03;;;;;;;23.72;58.76;98112.31;1377395;81;21076;-72
2022/07/26 07:21:54;;;;;;;16.97;7.30;;;;;;;23.84;58.62;98114.88;1370954;84;80806;-73
2022/07/26 07:23:55;;;;;;;25.02;7.12;;;;;;;23.95;58.50;98107.78;1374734;84;21148;-75
2022/07/26 07:25:56;;;;;;;11.60;6.53;;;;;;;24.06;58.49;98112.38;1371646;83;80966;-72
2022/07/26 07:27:59;;;;;;;24.60;6.85;;;;;;;24.19;58.33;98122.52;1375545;83;21111;-73
2022/07/26 07:30:01;;;;;;;15.48;6.62;;;;;;;24.31;58.17;98121.06;1373527;83;82079;-73
2022/07/26 07:32:02;;;;;;;17.25;7.03;;;;;;;24.42;57.95;98129.21;1373019;84;21010;-72
2022/07/26 07:34:03;;;;;;;17.95;7.05;;;;;;;24.51;57.82;98133.50;1375675;83;21088;-72
2022/07/26 07:36:04;;;;;;;13.65;6.58;;;;;;;24.60;57.91;98141.84;1372675;84;80809;-72
2022/07/26 07:38:05;;;;;;;8.60;6.95;;;;;;;24.71;57.92;98139.73;1375549;83;21134;-72
2022/07/26 07:40:08;;;;;;;13.90;6.62;;;;;;;24.81;57.89;98144.31;1371292;83;81875;-72
2022/07/26 07:42:09;;;;;;;14.23;7.08;;;;;;;24.90;57.68;98146.42;1375433;83;21037;-72
2022/07/26 07:44:10;;;;;;;13.78;6.75;;;;;;;24.97;57.61;98146.81;1370109;86;21088;-72
2022/07/26 07:46:13;;;;;;;22.60;7.20;;;;;;;25.06;57.56;98162.90;1373690;83;80992;-73
2022/07/26 07:48:14;;;;;;;24.05;7.83;;;;;;;25.11;57.31;98164.01;1375113;81;21112;-72
2022/07/26 07:50:16;;;;;;;18.90;7.22;;;;;;;25.16;57.09;98172.37;1372259;84;81209;-73
2022/07/26 07:52:17;;;;;;;20.60;7.12;;;;;;;25.21;56.89;98178.55;1374613;83;21151;-73
2022/07/26 07:54:18;;;;;;;15.20;7.83;;;;;;;25.21;56.82;98173.16;1377321;84;21556;-75
2022/07/26 07:56:19;;;;;;;15.90;7.15;;;;;;;25.23;56.53;98177.04;1373646;83;82480;-73
2022/07/26 07:58:20;;;;;;;30.20;7.55;;;;;;;25.23;56.56;98181.09;1375629;84;21057;-73
2022/07/26 08:00:20;;;;;;;11.20;7.75;;;;;;;25.26;56.56;98187.45;1373215;83;81399;-74
2022/07/26 08:02:22;;;;;;;14.10;7.03;;;;;;;25.27;56.47;98189.95;1377019;83;21065;-74
2022/07/26 08:04:23;;;;;;;23.47;7.47;;;;;;;25.31;56.45;98187.20;1376674;84;21092;-73
2022/07/26 08:06:24;;;;;;;13.83;7.70;;;;;;;25.32;56.36;98186.22;1373372;83;81512;-73
2022/07/26 08:08:25;;;;;;;14.07;8.63;;;;;;;25.34;56.36;98194.12;1375553;83;21553;-73
2022/07/26 08:10:26;;;;;;;10.28;7.70;;;;;;;25.33;56.29;98187.87;1366957;85;80855;-74
2022/07/26 08:12:29;;;;;;;23.00;7.60;;;;;;;25.35;56.30;98194.94;1375777;83;21068;-75
2022/07/26 08:14:30;;;;;;;12.95;6.72;;;;;;;25.33;56.33;98208.63;1376053;84;21534;-73
2022/07/26 08:16:31;;;;;;;13.55;7.85;;;;;;;25.32;56.33;98216.35;1373164;83;80922;-74
2022/07/26 08:18:32;;;;;;;14.10;8.00;;;;;;;25.29;56.32;98216.73;1379220;84;21061;-73
2022/07/26 08:20:33;;;;;;;26.15;8.35;;;;;;;25.24;56.32;98215.95;1373330;84;80950;-73
2022/07/26 08:22:34;;;;;;;18.35;9.15;;;;;;;25.17;56.54;98217.70;1375829;83;21552;-73
2022/07/26 08:24:35;;;;;;;11.22;7.87;;;;;;;25.23;56.53;98217.50;1375649;83;21120;-73
2022/07/26 08:26:37;;;;;;;10.18;7.83;;;;;;;25.24;56.69;98223.19;1370818;84;81693;-73
2022/07/26 08:28:38;;;;;;;18.45;8.63;;;;;;;25.24;56.62;98226.75;1377177;83;21041;-73
2022/07/26 08:30:39;;;;;;;12.50;8.65;;;;;;;25.20;56.73;98230.84;1372332;84;81036;-73
2022/07/26 08:32:40;;;;;;;16.37;9.50;;;;;;;25.17;56.74;98235.23;1374769;84;21013;-74
2022/07/26 08:34:41;;;;;;;19.92;9.28;;;;;;;25.13;56.78;98246.06;1375668;83;21080;-73
2022/07/26 08:36:44;;;;;;;12.45;9.08;;;;;;;25.06;56.75;98241.09;1377112;83;80906;-73
2022/07/26 08:38:45;;;;;;;10.75;9.13;;;;;;;25.02;56.91;98242.48;1377381;84;21106;-73
2022/07/26 08:40:46;;;;;;;19.73;9.48;;;;;;;24.98;56.98;98245.56;1376520;83;81664;-74
2022/07/26 08:42:50;;;;;;;17.52;9.58;;;;;;;24.95;56.98;98240.54;1377878;84;21152;-73
2022/07/26 08:44:51;;;;;;;15.93;9.70;;;;;;;24.93;57.04;98254.70;1375126;83;21053;-74
2022/07/26 08:46:52;;;;;;;20.90;9.90;;;;;;;24.92;57.08;98259.79;1377435;83;80889;-73
2022/07/26 08:48:55;;;;;;;13.30;9.20;;;;;;;24.90;57.18;98270.42;1378876;83;21072;-73
2022/07/26 08:50:56;;;;;;;17.23;9.63;;;;;;;24.85;57.20;98265.56;1372969;84;81668;-73
2022/07/26 08:53:02;;;;;;;18.10;9.78;;;;;;;24.83;57.29;98267.62;1381033;84;21092;-74
2022/07/26 08:55:04;;;;;;;11.55;10.03;;;;;;;24.82;57.35;98269.98;1378080;84;81945;-73
2022/07/26 08:57:05;;;;;;;18.45;10.72;;;;;;;24.84;57.36;98272.48;1377868;84;21099;-73
2022/07/26 08:59:15;;;;;;;26.55;10.25;;;;;;;24.88;57.44;98279.19;1377030;83;21072;-75
2022/07/26 09:01:16;;;;;;;24.30;10.35;;;;;;;24.92;57.49;98292.63;1376739;83;81355;-74
2022/07/26 09:03:25;;;;;;;17.50;10.50;;;;;;;24.89;57.28;98291.66;1375392;83;21079;-74
2022/07/26 09:05:32;;;;;;;16.27;11.65;;;;;;;24.76;57.32;98294.46;1376007;84;81357;-73
2022/07/26 09:07:34;;;;;;;18.05;11.93;;;;;;;24.70;57.37;98307.33;1377752;83;21063;-74
2022/07/26 09:09:38;;;;;;;20.23;11.80;;;;;;;24.62;57.38;98303.35;1377625;84;21454;-72
2022/07/26 09:11:40;;;;;;;24.92;12.58;;;;;;;24.51;57.48;98300.53;1372071;83;82593;-73
2022/07/26 09:14:02;;;;;;;19.32;12.78;;;;;;;24.45;57.64;98301.24;1378464;83;21061;-73
2022/07/26 09:16:11;;;;;;;23.83;12.90;;;;;;;24.45;57.75;98303.94;1374403;83;81100;-73
2022/07/26 09:18:26;;;;;;;16.12;13.22;;;;;;;24.42;57.78;98304.30;1376433;84;21065;-73
2022/07/26 09:20:30;;;;;;;21.77;12.90;;;;;;;24.45;57.82;98306.63;1376809;84;81021;-73
2022/07/26 09:22:31;;;;;;;14.03;12.10;;;;;;;24.51;57.79;98313.15;1375644;83;21107;-77
2022/07/26 09:24:35;;;;;;;15.45;12.43;;;;;;;24.53;57.78;98313.30;1379515;83;21694;-74
2022/07/26 09:26:36;;;;;;;20.75;13.30;;;;;;;24.50;57.63;98316.36;1375393;83;81995;-73
2022/07/26 09:28:39;;;;;;;27.07;12.47;;;;;;;24.41;57.53;98316.09;1375805;83;21037;-73
2022/07/26 09:30:43;;;;;;;22.48;13.13;;;;;;;24.36;57.79;98309.07;1377673;83;81122;-72
2022/07/26 09:33:05;;;;;;;21.02;12.73;;;;;;;24.36;57.82;98317.16;1373505;84;21603;-73
2022/07/26 09:35:12;;;;;;;14.10;12.63;;;;;;;24.33;57.83;98322.38;1375856;83;82091;-74
2022/07/26 09:37:14;;;;;;;21.27;12.45;;;;;;;24.29;57.89;98323.76;1376392;83;21049;-74
2022/07/26 09:39:15;;;;;;;17.42;12.05;;;;;;;24.22;57.95;98330.36;1373921;83;21043;-74